CheckWX is a tool to help pilots better visualize weather data.  It is not intended as a substitute for an official pre-flight weather briefing.

04:41:52 UTC

LEHC TAF
Huesca / Pirineos Airport
Monflorite/Alcalá del Obispo, Spain
TAF LEHC 230200Z 2303/2403 VRB03KT 9999 FEW030 TX22/2313Z TN06/2306Z BECMG 2310/2314 19010KT BECMG 2319/2321 VRB03KT

Mar-23@
03:00 UTC

Mar-23 @ 03:00 UTC

Mar-23@
10:00 UTC

Mar-23 @ 10:00 UTC

TAF LEHC 230200Z 2303/2403 VRB03KT 9999 FEW030 TX22/2313Z TN06/2306Z
Wind
  • Variable at 3 KTS
Cloud Levels
  • Few at 3,000' AGL

Mar-23@
10:00 UTC

Mar-23 @ 10:00 UTC

Mar-23@
19:00 UTC

Mar-23 @ 19:00 UTC

BECMG 2310/2314 19010KT

Becoming

Becoming Conditions expected by Sat, Mar 23, 2019 @ 14:00 UTC

Wind
  • 190° at 10 KTS
Cloud Levels
  • Few at 3,000' AGL

Mar-23@
19:00 UTC

Mar-23 @ 19:00 UTC

Mar-24@
03:00 UTC

Mar-24 @ 03:00 UTC

BECMG 2319/2321 VRB03KT

Becoming

Becoming Conditions expected by Sat, Mar 23, 2019 @ 21:00 UTC

Wind
  • Variable at 3 KTS
Cloud Levels
  • Few at 3,000' AGL